sensor_id;sensor_type;location;lat;lon;timestamp;P1;durP1;ratioP1;P2;durP2;ratioP2
75340;SDS011;64931;47.562;18.920;2023-02-08T00:01:05;25.70;;;11.90;;
75340;SDS011;64931;47.562;18.920;2023-02-08T00:03:36;33.90;;;14.30;;
75340;SDS011;64931;47.562;18.920;2023-02-08T00:06:02;32.80;;;12.50;;
75340;SDS011;64931;47.562;18.920;2023-02-08T00:08:28;38.20;;;17.40;;
75340;SDS011;64931;47.562;18.920;2023-02-08T00:10:54;29.30;;;13.10;;
75340;SDS011;64931;47.562;18.920;2023-02-08T00:13:19;36.50;;;16.10;;
75340;SDS011;64931;47.562;18.920;2023-02-08T00:15:45;22.10;;;10.00;;
75340;SDS011;64931;47.562;18.920;2023-02-08T00:18:11;32.30;;;14.50;;
75340;SDS011;64931;47.562;18.920;2023-02-08T00:20:37;30.20;;;15.00;;
75340;SDS011;64931;47.562;18.920;2023-02-08T00:23:03;29.50;;;12.50;;
75340;SDS011;64931;47.562;18.920;2023-02-08T00:25:30;31.20;;;12.70;;
75340;SDS011;64931;47.562;18.920;2023-02-08T00:27:56;35.10;;;15.70;;
75340;SDS011;64931;47.562;18.920;2023-02-08T00:30:21;21.90;;;10.10;;
75340;SDS011;64931;47.562;18.920;2023-02-08T00:32:46;31.30;;;13.20;;
75340;SDS011;64931;47.562;18.920;2023-02-08T00:35:12;35.40;;;15.90;;
75340;SDS011;64931;47.562;18.920;2023-02-08T00:37:37;29.90;;;12.50;;
75340;SDS011;64931;47.562;18.920;2023-02-08T00:40:03;25.40;;;11.80;;
75340;SDS011;64931;47.562;18.920;2023-02-08T00:42:30;45.70;;;17.80;;
75340;SDS011;64931;47.562;18.920;2023-02-08T00:44:55;28.80;;;13.30;;
75340;SDS011;64931;47.562;18.920;2023-02-08T00:47:22;43.10;;;20.90;;
75340;SDS011;64931;47.562;18.920;2023-02-08T00:49:49;32.60;;;12.90;;
75340;SDS011;64931;47.562;18.920;2023-02-08T00:52:14;37.60;;;17.70;;
75340;SDS011;64931;47.562;18.920;2023-02-08T00:54:40;35.60;;;15.80;;
75340;SDS011;64931;47.562;18.920;2023-02-08T00:57:06;44.30;;;19.00;;
75340;SDS011;64931;47.562;18.920;2023-02-08T00:59:32;34.70;;;15.50;;
75340;SDS011;64931;47.562;18.920;2023-02-08T01:01:58;26.80;;;10.40;;
75340;SDS011;64931;47.562;18.920;2023-02-08T01:04:23;21.20;;;8.90;;
75340;SDS011;64931;47.562;18.920;2023-02-08T01:06:48;25.50;;;11.40;;
75340;SDS011;64931;47.562;18.920;2023-02-08T01:09:14;23.80;;;11.40;;
75340;SDS011;64931;47.562;18.920;2023-02-08T01:11:39;19.70;;;8.60;;
75340;SDS011;64931;47.562;18.920;2023-02-08T01:14:05;19.80;;;8.10;;
75340;SDS011;64931;47.562;18.920;2023-02-08T01:16:31;17.60;;;6.80;;
75340;SDS011;64931;47.562;18.920;2023-02-08T01:18:57;18.40;;;9.10;;
75340;SDS011;64931;47.562;18.920;2023-02-08T01:21:25;18.40;;;7.80;;
75340;SDS011;64931;47.562;18.920;2023-02-08T01:23:53;18.90;;;9.00;;
75340;SDS011;64931;47.562;18.920;2023-02-08T01:26:19;17.20;;;7.50;;
75340;SDS011;64931;47.562;18.920;2023-02-08T01:28:46;16.30;;;6.70;;
75340;SDS011;64931;47.562;18.920;2023-02-08T01:31:13;17.00;;;7.00;;
75340;SDS011;64931;47.562;18.920;2023-02-08T01:33:44;15.70;;;6.80;;
75340;SDS011;64931;47.562;18.920;2023-02-08T01:36:10;19.80;;;9.10;;
75340;SDS011;64931;47.562;18.920;2023-02-08T01:38:36;18.30;;;8.00;;
75340;SDS011;64931;47.562;18.920;2023-02-08T01:41:03;15.70;;;7.30;;
75340;SDS011;64931;47.562;18.920;2023-02-08T01:45:57;15.70;;;6.90;;
75340;SDS011;64931;47.562;18.920;2023-02-08T01:48:28;22.00;;;8.10;;
75340;SDS011;64931;47.562;18.920;2023-02-08T01:50:58;14.50;;;6.60;;
75340;SDS011;64931;47.562;18.920;2023-02-08T01:53:27;17.80;;;7.50;;
75340;SDS011;64931;47.562;18.920;2023-02-08T01:55:54;14.40;;;6.70;;
75340;SDS011;64931;47.562;18.920;2023-02-08T01:58:23;15.60;;;6.60;;
75340;SDS011;64931;47.562;18.920;2023-02-08T02:00:49;15.70;;;7.20;;
75340;SDS011;64931;47.562;18.920;2023-02-08T02:03:15;13.40;;;6.40;;
75340;SDS011;64931;47.562;18.920;2023-02-08T02:05:42;17.10;;;6.20;;
75340;SDS011;64931;47.562;18.920;2023-02-08T02:08:09;15.80;;;7.70;;
75340;SDS011;64931;47.562;18.920;2023-02-08T02:10:36;16.00;;;6.60;;
75340;SDS011;64931;47.562;18.920;2023-02-08T02:13:08;12.10;;;4.80;;
75340;SDS011;64931;47.562;18.920;2023-02-08T02:15:37;14.20;;;5.50;;
75340;SDS011;64931;47.562;18.920;2023-02-08T02:18:03;13.10;;;6.20;;
75340;SDS011;64931;47.562;18.920;2023-02-08T02:39:52;14.40;;;6.70;;
75340;SDS011;64931;47.562;18.920;2023-02-08T02:50:58;17.70;;;9.40;;
75340;SDS011;64931;47.562;18.920;2023-02-08T02:53:30;16.00;;;7.10;;
75340;SDS011;64931;47.562;18.920;2023-02-08T02:56:07;16.40;;;8.00;;
75340;SDS011;64931;47.562;18.920;2023-02-08T02:58:36;14.10;;;6.40;;
75340;SDS011;64931;47.562;18.920;2023-02-08T03:01:02;14.00;;;6.30;;
75340;SDS011;64931;47.562;18.920;2023-02-08T03:03:29;14.60;;;6.30;;
75340;SDS011;64931;47.562;18.920;2023-02-08T03:06:00;14.60;;;7.20;;
75340;SDS011;64931;47.562;18.920;2023-02-08T03:16:12;15.10;;;6.50;;
75340;SDS011;64931;47.562;18.920;2023-02-08T03:18:55;11.70;;;5.60;;
75340;SDS011;64931;47.562;18.920;2023-02-08T03:24:20;11.60;;;5.30;;
75340;SDS011;64931;47.562;18.920;2023-02-08T03:27:09;12.20;;;5.90;;
75340;SDS011;64931;47.562;18.920;2023-02-08T03:32:20;9.70;;;4.50;;
75340;SDS011;64931;47.562;18.920;2023-02-08T03:34:55;11.30;;;4.70;;
75340;SDS011;64931;47.562;18.920;2023-02-08T03:37:41;11.30;;;5.80;;
75340;SDS011;64931;47.562;18.920;2023-02-08T03:40:13;13.70;;;5.60;;
75340;SDS011;64931;47.562;18.920;2023-02-08T03:42:45;13.80;;;7.00;;
75340;SDS011;64931;47.562;18.920;2023-02-08T03:45:15;11.50;;;5.50;;
75340;SDS011;64931;47.562;18.920;2023-02-08T03:47:43;13.30;;;5.30;;
75340;SDS011;64931;47.562;18.920;2023-02-08T03:50:11;14.20;;;6.00;;
75340;SDS011;64931;47.562;18.920;2023-02-08T03:52:38;11.00;;;5.20;;
75340;SDS011;64931;47.562;18.920;2023-02-08T03:55:06;13.10;;;5.20;;
75340;SDS011;64931;47.562;18.920;2023-02-08T03:57:52;14.50;;;6.80;;
75340;SDS011;64931;47.562;18.920;2023-02-08T04:00:18;13.40;;;6.20;;
75340;SDS011;64931;47.562;18.920;2023-02-08T04:02:56;14.60;;;5.90;;
75340;SDS011;64931;47.562;18.920;2023-02-08T04:05:26;12.70;;;6.40;;
75340;SDS011;64931;47.562;18.920;2023-02-08T04:07:52;10.10;;;4.60;;
75340;SDS011;64931;47.562;18.920;2023-02-08T04:10:18;12.60;;;6.70;;
75340;SDS011;64931;47.562;18.920;2023-02-08T04:12:44;13.70;;;5.90;;
75340;SDS011;64931;47.562;18.920;2023-02-08T04:15:11;14.20;;;7.30;;
75340;SDS011;64931;47.562;18.920;2023-02-08T04:17:37;12.90;;;6.00;;
75340;SDS011;64931;47.562;18.920;2023-02-08T04:20:02;12.90;;;5.70;;
75340;SDS011;64931;47.562;18.920;2023-02-08T04:22:28;12.50;;;5.80;;
75340;SDS011;64931;47.562;18.920;2023-02-08T04:24:53;12.10;;;5.80;;
75340;SDS011;64931;47.562;18.920;2023-02-08T04:27:19;12.20;;;5.30;;
75340;SDS011;64931;47.562;18.920;2023-02-08T04:29:44;11.80;;;5.20;;
75340;SDS011;64931;47.562;18.920;2023-02-08T04:32:09;12.40;;;4.90;;
75340;SDS011;64931;47.562;18.920;2023-02-08T04:34:36;9.90;;;4.70;;
75340;SDS011;64931;47.562;18.920;2023-02-08T04:37:03;14.40;;;6.40;;
75340;SDS011;64931;47.562;18.920;2023-02-08T04:39:29;11.80;;;5.00;;
75340;SDS011;64931;47.562;18.920;2023-02-08T04:41:55;10.50;;;4.40;;
75340;SDS011;64931;47.562;18.920;2023-02-08T04:44:20;10.60;;;4.60;;
75340;SDS011;64931;47.562;18.920;2023-02-08T04:46:45;10.20;;;4.10;;
75340;SDS011;64931;47.562;18.920;2023-02-08T04:49:11;10.80;;;5.10;;
75340;SDS011;64931;47.562;18.920;2023-02-08T04:51:37;14.10;;;6.10;;
75340;SDS011;64931;47.562;18.920;2023-02-08T04:54:02;12.40;;;5.40;;
75340;SDS011;64931;47.562;18.920;2023-02-08T04:56:28;11.80;;;5.30;;
75340;SDS011;64931;47.562;18.920;2023-02-08T04:58:53;11.20;;;5.00;;
75340;SDS011;64931;47.562;18.920;2023-02-08T05:01:18;9.90;;;4.40;;
75340;SDS011;64931;47.562;18.920;2023-02-08T05:03:44;10.80;;;4.60;;
75340;SDS011;64931;47.562;18.920;2023-02-08T05:06:09;11.00;;;5.20;;
75340;SDS011;64931;47.562;18.920;2023-02-08T05:08:35;11.20;;;4.70;;
75340;SDS011;64931;47.562;18.920;2023-02-08T05:11:00;12.60;;;4.60;;
75340;SDS011;64931;47.562;18.920;2023-02-08T05:13:26;11.20;;;4.50;;
75340;SDS011;64931;47.562;18.920;2023-02-08T05:15:51;9.20;;;4.30;;
75340;SDS011;64931;47.562;18.920;2023-02-08T05:18:17;10.30;;;4.30;;
75340;SDS011;64931;47.562;18.920;2023-02-08T05:20:42;10.90;;;3.80;;
75340;SDS011;64931;47.562;18.920;2023-02-08T05:23:07;10.10;;;5.00;;
75340;SDS011;64931;47.562;18.920;2023-02-08T05:25:33;9.60;;;4.50;;
75340;SDS011;64931;47.562;18.920;2023-02-08T05:27:58;11.90;;;4.60;;
75340;SDS011;64931;47.562;18.920;2023-02-08T05:30:24;11.30;;;4.60;;
75340;SDS011;64931;47.562;18.920;2023-02-08T05:32:49;10.00;;;4.20;;
75340;SDS011;64931;47.562;18.920;2023-02-08T05:35:15;12.10;;;4.80;;
75340;SDS011;64931;47.562;18.920;2023-02-08T05:37:40;10.10;;;4.60;;
75340;SDS011;64931;47.562;18.920;2023-02-08T05:40:06;9.90;;;4.40;;
75340;SDS011;64931;47.562;18.920;2023-02-08T05:42:32;11.10;;;5.10;;
75340;SDS011;64931;47.562;18.920;2023-02-08T05:44:57;11.30;;;4.40;;
75340;SDS011;64931;47.562;18.920;2023-02-08T05:47:22;9.70;;;4.60;;
75340;SDS011;64931;47.562;18.920;2023-02-08T05:49:48;10.50;;;4.30;;
75340;SDS011;64931;47.562;18.920;2023-02-08T05:52:13;9.20;;;4.20;;
75340;SDS011;64931;47.562;18.920;2023-02-08T05:54:39;9.60;;;4.20;;
75340;SDS011;64931;47.562;18.920;2023-02-08T05:57:04;10.00;;;4.40;;
75340;SDS011;64931;47.562;18.920;2023-02-08T05:59:30;11.40;;;4.20;;
75340;SDS011;64931;47.562;18.920;2023-02-08T06:01:55;7.90;;;3.40;;
75340;SDS011;64931;47.562;18.920;2023-02-08T06:04:21;12.90;;;5.30;;
75340;SDS011;64931;47.562;18.920;2023-02-08T06:06:46;10.60;;;4.90;;
75340;SDS011;64931;47.562;18.920;2023-02-08T06:09:12;10.00;;;4.20;;
75340;SDS011;64931;47.562;18.920;2023-02-08T06:11:37;10.30;;;5.20;;
75340;SDS011;64931;47.562;18.920;2023-02-08T06:14:02;12.10;;;5.10;;
75340;SDS011;64931;47.562;18.920;2023-02-08T06:16:28;11.60;;;4.60;;
75340;SDS011;64931;47.562;18.920;2023-02-08T06:18:53;9.80;;;4.30;;
75340;SDS011;64931;47.562;18.920;2023-02-08T06:21:19;9.60;;;3.60;;
75340;SDS011;64931;47.562;18.920;2023-02-08T06:23:44;11.00;;;4.70;;
75340;SDS011;64931;47.562;18.920;2023-02-08T06:26:10;10.10;;;4.40;;
75340;SDS011;64931;47.562;18.920;2023-02-08T06:28:35;9.90;;;4.00;;
75340;SDS011;64931;47.562;18.920;2023-02-08T06:31:00;8.90;;;4.00;;
75340;SDS011;64931;47.562;18.920;2023-02-08T06:33:26;10.20;;;4.30;;
75340;SDS011;64931;47.562;18.920;2023-02-08T06:35:51;10.40;;;4.80;;
75340;SDS011;64931;47.562;18.920;2023-02-08T06:38:17;11.50;;;4.50;;
75340;SDS011;64931;47.562;18.920;2023-02-08T06:40:45;11.50;;;4.40;;
75340;SDS011;64931;47.562;18.920;2023-02-08T06:43:11;10.60;;;4.40;;
75340;SDS011;64931;47.562;18.920;2023-02-08T06:45:37;9.80;;;4.70;;
75340;SDS011;64931;47.562;18.920;2023-02-08T06:48:02;9.90;;;4.40;;
75340;SDS011;64931;47.562;18.920;2023-02-08T06:50:28;10.40;;;3.80;;
75340;SDS011;64931;47.562;18.920;2023-02-08T06:52:55;7.50;;;3.40;;
75340;SDS011;64931;47.562;18.920;2023-02-08T06:55:20;9.60;;;4.50;;
75340;SDS011;64931;47.562;18.920;2023-02-08T06:57:46;11.30;;;5.00;;
75340;SDS011;64931;47.562;18.920;2023-02-08T07:00:11;12.20;;;4.50;;
75340;SDS011;64931;47.562;18.920;2023-02-08T07:02:37;11.50;;;5.20;;
75340;SDS011;64931;47.562;18.920;2023-02-08T07:05:03;12.60;;;5.10;;
75340;SDS011;64931;47.562;18.920;2023-02-08T07:07:28;12.70;;;6.10;;
75340;SDS011;64931;47.562;18.920;2023-02-08T07:09:54;11.40;;;4.90;;
75340;SDS011;64931;47.562;18.920;2023-02-08T07:12:19;11.90;;;5.20;;
75340;SDS011;64931;47.562;18.920;2023-02-08T07:14:44;13.40;;;5.20;;
75340;SDS011;64931;47.562;18.920;2023-02-08T07:17:10;11.10;;;5.50;;
75340;SDS011;64931;47.562;18.920;2023-02-08T07:19:36;16.00;;;6.80;;
75340;SDS011;64931;47.562;18.920;2023-02-08T07:22:02;13.70;;;5.20;;
75340;SDS011;64931;47.562;18.920;2023-02-08T07:24:35;11.20;;;4.70;;
75340;SDS011;64931;47.562;18.920;2023-02-08T07:27:02;11.00;;;4.60;;
75340;SDS011;64931;47.562;18.920;2023-02-08T07:29:28;13.30;;;6.70;;
75340;SDS011;64931;47.562;18.920;2023-02-08T07:31:54;11.60;;;5.50;;
75340;SDS011;64931;47.562;18.920;2023-02-08T07:34:20;9.10;;;3.60;;
75340;SDS011;64931;47.562;18.920;2023-02-08T07:36:46;13.20;;;5.90;;
75340;SDS011;64931;47.562;18.920;2023-02-08T07:39:13;12.80;;;5.90;;
75340;SDS011;64931;47.562;18.920;2023-02-08T07:41:38;11.10;;;5.00;;
75340;SDS011;64931;47.562;18.920;2023-02-08T07:44:04;12.00;;;5.10;;
75340;SDS011;64931;47.562;18.920;2023-02-08T07:46:29;15.10;;;7.90;;
75340;SDS011;64931;47.562;18.920;2023-02-08T07:48:54;14.10;;;6.90;;
75340;SDS011;64931;47.562;18.920;2023-02-08T07:51:20;12.40;;;5.60;;
75340;SDS011;64931;47.562;18.920;2023-02-08T07:53:45;16.40;;;8.10;;
75340;SDS011;64931;47.562;18.920;2023-02-08T07:56:11;10.80;;;4.50;;
75340;SDS011;64931;47.562;18.920;2023-02-08T07:58:36;12.20;;;5.40;;
75340;SDS011;64931;47.562;18.920;2023-02-08T08:01:02;20.20;;;10.70;;
75340;SDS011;64931;47.562;18.920;2023-02-08T08:03:27;12.30;;;5.70;;
75340;SDS011;64931;47.562;18.920;2023-02-08T08:05:53;18.30;;;6.40;;
75340;SDS011;64931;47.562;18.920;2023-02-08T08:08:18;13.50;;;7.20;;
75340;SDS011;64931;47.562;18.920;2023-02-08T08:10:44;12.40;;;7.00;;
75340;SDS011;64931;47.562;18.920;2023-02-08T08:13:10;14.40;;;6.80;;
75340;SDS011;64931;47.562;18.920;2023-02-08T08:15:37;13.00;;;7.10;;
75340;SDS011;64931;47.562;18.920;2023-02-08T08:18:03;13.20;;;6.10;;
75340;SDS011;64931;47.562;18.920;2023-02-08T08:20:28;13.00;;;7.60;;
75340;SDS011;64931;47.562;18.920;2023-02-08T08:22:54;17.20;;;8.20;;
75340;SDS011;64931;47.562;18.920;2023-02-08T08:25:19;15.10;;;7.20;;
75340;SDS011;64931;47.562;18.920;2023-02-08T08:27:45;17.70;;;9.20;;
75340;SDS011;64931;47.562;18.920;2023-02-08T08:30:11;17.60;;;11.50;;
75340;SDS011;64931;47.562;18.920;2023-02-08T08:32:38;14.70;;;6.60;;
75340;SDS011;64931;47.562;18.920;2023-02-08T08:35:04;12.90;;;5.40;;
75340;SDS011;64931;47.562;18.920;2023-02-08T08:37:30;14.20;;;7.40;;
75340;SDS011;64931;47.562;18.920;2023-02-08T08:39:56;13.90;;;7.20;;
75340;SDS011;64931;47.562;18.920;2023-02-08T08:42:21;17.10;;;10.50;;
75340;SDS011;64931;47.562;18.920;2023-02-08T08:44:47;12.40;;;6.40;;
75340;SDS011;64931;47.562;18.920;2023-02-08T08:47:12;13.30;;;7.00;;
75340;SDS011;64931;47.562;18.920;2023-02-08T08:49:38;14.20;;;7.90;;
75340;SDS011;64931;47.562;18.920;2023-02-08T08:52:04;12.50;;;7.20;;
75340;SDS011;64931;47.562;18.920;2023-02-08T08:54:32;12.00;;;6.00;;
75340;SDS011;64931;47.562;18.920;2023-02-08T08:56:58;14.70;;;7.30;;
75340;SDS011;64931;47.562;18.920;2023-02-08T08:59:23;12.10;;;6.80;;
75340;SDS011;64931;47.562;18.920;2023-02-08T09:01:49;11.10;;;5.90;;
75340;SDS011;64931;47.562;18.920;2023-02-08T09:04:14;13.70;;;6.80;;
75340;SDS011;64931;47.562;18.920;2023-02-08T09:06:40;12.30;;;6.60;;
75340;SDS011;64931;47.562;18.920;2023-02-08T09:09:05;13.50;;;7.40;;
75340;SDS011;64931;47.562;18.920;2023-02-08T09:11:31;14.50;;;7.70;;
75340;SDS011;64931;47.562;18.920;2023-02-08T09:13:57;14.10;;;7.30;;
75340;SDS011;64931;47.562;18.920;2023-02-08T09:16:23;12.00;;;6.60;;
75340;SDS011;64931;47.562;18.920;2023-02-08T09:18:49;13.60;;;7.50;;
75340;SDS011;64931;47.562;18.920;2023-02-08T09:21:18;15.10;;;8.00;;
75340;SDS011;64931;47.562;18.920;2023-02-08T09:23:46;13.40;;;5.70;;
75340;SDS011;64931;47.562;18.920;2023-02-08T09:28:40;15.40;;;7.00;;
75340;SDS011;64931;47.562;18.920;2023-02-08T09:31:07;13.70;;;6.70;;
75340;SDS011;64931;47.562;18.920;2023-02-08T09:33:36;14.80;;;7.50;;
75340;SDS011;64931;47.562;18.920;2023-02-08T09:36:01;14.90;;;8.80;;
75340;SDS011;64931;47.562;18.920;2023-02-08T09:38:27;14.80;;;7.60;;
75340;SDS011;64931;47.562;18.920;2023-02-08T09:46:18;8.50;;;4.30;;
75340;SDS011;64931;47.562;18.920;2023-02-08T09:48:45;14.00;;;7.10;;
75340;SDS011;64931;47.562;18.920;2023-02-08T09:53:42;11.20;;;6.20;;
75340;SDS011;64931;47.562;18.920;2023-02-08T09:56:14;10.40;;;5.00;;
75340;SDS011;64931;47.562;18.920;2023-02-08T09:58:45;12.40;;;6.20;;
75340;SDS011;64931;47.562;18.920;2023-02-08T10:01:30;12.60;;;7.30;;
75340;SDS011;64931;47.562;18.920;2023-02-08T10:04:20;12.40;;;6.30;;
75340;SDS011;64931;47.562;18.920;2023-02-08T10:06:50;10.50;;;5.30;;
75340;SDS011;64931;47.562;18.920;2023-02-08T10:09:17;13.40;;;6.70;;
75340;SDS011;64931;47.562;18.920;2023-02-08T10:20:21;13.00;;;6.40;;
75340;SDS011;64931;47.562;18.920;2023-02-08T10:36:44;12.90;;;6.60;;
75340;SDS011;64931;47.562;18.920;2023-02-08T10:39:16;12.60;;;6.70;;
75340;SDS011;64931;47.562;18.920;2023-02-08T10:41:44;13.40;;;6.70;;
75340;SDS011;64931;47.562;18.920;2023-02-08T10:52:04;12.60;;;5.50;;
75340;SDS011;64931;47.562;18.920;2023-02-08T10:54:30;12.00;;;5.90;;
75340;SDS011;64931;47.562;18.920;2023-02-08T10:56:57;12.00;;;6.70;;
75340;SDS011;64931;47.562;18.920;2023-02-08T10:59:29;14.20;;;7.00;;
75340;SDS011;64931;47.562;18.920;2023-02-08T11:01:57;13.30;;;7.40;;
75340;SDS011;64931;47.562;18.920;2023-02-08T11:04:23;14.10;;;7.30;;
75340;SDS011;64931;47.562;18.920;2023-02-08T11:06:49;12.60;;;6.30;;
75340;SDS011;64931;47.562;18.920;2023-02-08T11:09:19;12.30;;;6.20;;
75340;SDS011;64931;47.562;18.920;2023-02-08T11:11:53;12.00;;;6.60;;
75340;SDS011;64931;47.562;18.920;2023-02-08T11:14:22;13.20;;;7.30;;
75340;SDS011;64931;47.562;18.920;2023-02-08T11:16:56;12.60;;;7.00;;
75340;SDS011;64931;47.562;18.920;2023-02-08T11:21:57;12.70;;;7.40;;
75340;SDS011;64931;47.562;18.920;2023-02-08T11:32:43;13.80;;;7.40;;
75340;SDS011;64931;47.562;18.920;2023-02-08T11:37:54;12.90;;;6.20;;
75340;SDS011;64931;47.562;18.920;2023-02-08T11:40:22;11.40;;;6.40;;
75340;SDS011;64931;47.562;18.920;2023-02-08T11:42:49;12.90;;;7.40;;
75340;SDS011;64931;47.562;18.920;2023-02-08T11:45:20;14.70;;;8.80;;
75340;SDS011;64931;47.562;18.920;2023-02-08T11:47:47;13.90;;;7.90;;
75340;SDS011;64931;47.562;18.920;2023-02-08T11:52:50;11.50;;;6.80;;
75340;SDS011;64931;47.562;18.920;2023-02-08T11:55:25;11.80;;;7.00;;
75340;SDS011;64931;47.562;18.920;2023-02-08T11:57:59;13.10;;;8.20;;
75340;SDS011;64931;47.562;18.920;2023-02-08T12:00:31;11.90;;;7.70;;
75340;SDS011;64931;47.562;18.920;2023-02-08T12:03:04;9.90;;;5.70;;
75340;SDS011;64931;47.562;18.920;2023-02-08T12:08:22;13.50;;;6.50;;
75340;SDS011;64931;47.562;18.920;2023-02-08T12:19:03;10.70;;;6.10;;
75340;SDS011;64931;47.562;18.920;2023-02-08T12:21:45;11.30;;;6.30;;
75340;SDS011;64931;47.562;18.920;2023-02-08T12:24:15;12.10;;;7.40;;
75340;SDS011;64931;47.562;18.920;2023-02-08T12:37:25;12.70;;;7.00;;
75340;SDS011;64931;47.562;18.920;2023-02-08T12:40:34;13.00;;;7.00;;
75340;SDS011;64931;47.562;18.920;2023-02-08T12:52:02;9.30;;;5.40;;
75340;SDS011;64931;47.562;18.920;2023-02-08T12:54:41;9.50;;;5.80;;
75340;SDS011;64931;47.562;18.920;2023-02-08T12:57:11;9.60;;;5.30;;
75340;SDS011;64931;47.562;18.920;2023-02-08T12:59:40;9.20;;;4.40;;
75340;SDS011;64931;47.562;18.920;2023-02-08T13:02:22;11.80;;;5.60;;
75340;SDS011;64931;47.562;18.920;2023-02-08T13:04:51;11.00;;;7.10;;
75340;SDS011;64931;47.562;18.920;2023-02-08T13:07:20;11.70;;;7.00;;
75340;SDS011;64931;47.562;18.920;2023-02-08T13:10:05;9.70;;;5.60;;
75340;SDS011;64931;47.562;18.920;2023-02-08T13:12:40;11.80;;;6.70;;
75340;SDS011;64931;47.562;18.920;2023-02-08T13:15:14;11.10;;;6.70;;
75340;SDS011;64931;47.562;18.920;2023-02-08T13:17:53;12.80;;;7.50;;
75340;SDS011;64931;47.562;18.920;2023-02-08T13:23:18;11.50;;;6.50;;
75340;SDS011;64931;47.562;18.920;2023-02-08T13:25:45;12.20;;;7.20;;
75340;SDS011;64931;47.562;18.920;2023-02-08T13:28:17;13.30;;;7.60;;
75340;SDS011;64931;47.562;18.920;2023-02-08T13:30:45;12.30;;;6.90;;
75340;SDS011;64931;47.562;18.920;2023-02-08T13:33:18;12.00;;;7.00;;
75340;SDS011;64931;47.562;18.920;2023-02-08T13:35:51;12.70;;;7.00;;
75340;SDS011;64931;47.562;18.920;2023-02-08T13:41:14;41.00;;;6.30;;
75340;SDS011;64931;47.562;18.920;2023-02-08T13:43:44;13.10;;;6.70;;
75340;SDS011;64931;47.562;18.920;2023-02-08T13:46:13;11.80;;;6.20;;
75340;SDS011;64931;47.562;18.920;2023-02-08T13:48:42;11.40;;;5.00;;
75340;SDS011;64931;47.562;18.920;2023-02-08T13:59:02;12.80;;;6.10;;
75340;SDS011;64931;47.562;18.920;2023-02-08T14:01:30;12.50;;;6.40;;
75340;SDS011;64931;47.562;18.920;2023-02-08T14:06:34;9.90;;;5.40;;
75340;SDS011;64931;47.562;18.920;2023-02-08T14:14:15;11.40;;;6.10;;
75340;SDS011;64931;47.562;18.920;2023-02-08T14:19:32;12.60;;;7.10;;
75340;SDS011;64931;47.562;18.920;2023-02-08T14:24:38;8.80;;;3.80;;
75340;SDS011;64931;47.562;18.920;2023-02-08T14:32:34;11.40;;;6.40;;
75340;SDS011;64931;47.562;18.920;2023-02-08T14:37:50;10.30;;;5.50;;
75340;SDS011;64931;47.562;18.920;2023-02-08T14:40:55;11.00;;;5.60;;
75340;SDS011;64931;47.562;18.920;2023-02-08T14:43:29;9.90;;;4.90;;
75340;SDS011;64931;47.562;18.920;2023-02-08T14:49:25;8.60;;;4.60;;
75340;SDS011;64931;47.562;18.920;2023-02-08T14:51:57;10.10;;;5.70;;
75340;SDS011;64931;47.562;18.920;2023-02-08T14:54:36;10.00;;;5.80;;
75340;SDS011;64931;47.562;18.920;2023-02-08T14:57:23;10.80;;;6.00;;
75340;SDS011;64931;47.562;18.920;2023-02-08T14:59:52;9.30;;;5.00;;
75340;SDS011;64931;47.562;18.920;2023-02-08T15:02:20;8.60;;;4.60;;
75340;SDS011;64931;47.562;18.920;2023-02-08T15:04:46;10.60;;;5.60;;
75340;SDS011;64931;47.562;18.920;2023-02-08T15:10:03;11.50;;;5.80;;
75340;SDS011;64931;47.562;18.920;2023-02-08T15:12:33;12.10;;;5.90;;
75340;SDS011;64931;47.562;18.920;2023-02-08T15:15:02;10.30;;;5.70;;
75340;SDS011;64931;47.562;18.920;2023-02-08T15:20:00;11.40;;;6.00;;
75340;SDS011;64931;47.562;18.920;2023-02-08T15:24:56;11.90;;;6.10;;
75340;SDS011;64931;47.562;18.920;2023-02-08T15:27:26;16.50;;;9.20;;
75340;SDS011;64931;47.562;18.920;2023-02-08T15:29:53;17.40;;;9.00;;
75340;SDS011;64931;47.562;18.920;2023-02-08T15:32:20;17.90;;;10.30;;
75340;SDS011;64931;47.562;18.920;2023-02-08T15:34:49;11.50;;;5.60;;
75340;SDS011;64931;47.562;18.920;2023-02-08T15:37:25;14.40;;;7.90;;
75340;SDS011;64931;47.562;18.920;2023-02-08T15:39:54;14.20;;;9.90;;
75340;SDS011;64931;47.562;18.920;2023-02-08T15:42:23;13.80;;;7.50;;
75340;SDS011;64931;47.562;18.920;2023-02-08T15:44:54;15.20;;;9.00;;
75340;SDS011;64931;47.562;18.920;2023-02-08T15:49:56;18.70;;;12.00;;
75340;SDS011;64931;47.562;18.920;2023-02-08T15:52:23;16.60;;;9.00;;
75340;SDS011;64931;47.562;18.920;2023-02-08T15:54:51;26.40;;;15.40;;
75340;SDS011;64931;47.562;18.920;2023-02-08T15:57:19;48.00;;;27.50;;
75340;SDS011;64931;47.562;18.920;2023-02-08T16:00:04;20.20;;;11.70;;
75340;SDS011;64931;47.562;18.920;2023-02-08T16:02:34;13.80;;;7.30;;
75340;SDS011;64931;47.562;18.920;2023-02-08T16:05:00;11.10;;;5.80;;
75340;SDS011;64931;47.562;18.920;2023-02-08T16:07:42;20.80;;;11.20;;
75340;SDS011;64931;47.562;18.920;2023-02-08T16:10:16;15.00;;;8.20;;
75340;SDS011;64931;47.562;18.920;2023-02-08T16:12:52;14.70;;;8.40;;
75340;SDS011;64931;47.562;18.920;2023-02-08T16:18:28;18.70;;;9.00;;
75340;SDS011;64931;47.562;18.920;2023-02-08T16:24:31;17.10;;;9.20;;
75340;SDS011;64931;47.562;18.920;2023-02-08T16:29:33;13.70;;;7.40;;
75340;SDS011;64931;47.562;18.920;2023-02-08T16:32:05;14.10;;;7.20;;
75340;SDS011;64931;47.562;18.920;2023-02-08T16:34:32;15.10;;;8.30;;
75340;SDS011;64931;47.562;18.920;2023-02-08T16:36:59;14.00;;;8.00;;
75340;SDS011;64931;47.562;18.920;2023-02-08T16:39:36;15.50;;;7.80;;
75340;SDS011;64931;47.562;18.920;2023-02-08T16:42:27;14.50;;;6.60;;
75340;SDS011;64931;47.562;18.920;2023-02-08T16:45:11;14.70;;;6.90;;
75340;SDS011;64931;47.562;18.920;2023-02-08T16:47:41;14.40;;;6.40;;
75340;SDS011;64931;47.562;18.920;2023-02-08T16:50:11;14.00;;;6.60;;
75340;SDS011;64931;47.562;18.920;2023-02-08T16:52:39;25.10;;;11.70;;
75340;SDS011;64931;47.562;18.920;2023-02-08T16:55:05;17.00;;;8.90;;
75340;SDS011;64931;47.562;18.920;2023-02-08T16:57:51;15.30;;;7.60;;
75340;SDS011;64931;47.562;18.920;2023-02-08T17:00:19;15.60;;;7.40;;
75340;SDS011;64931;47.562;18.920;2023-02-08T17:02:45;29.20;;;18.60;;
75340;SDS011;64931;47.562;18.920;2023-02-08T17:05:11;18.00;;;9.10;;
75340;SDS011;64931;47.562;18.920;2023-02-08T17:07:36;19.90;;;10.90;;
75340;SDS011;64931;47.562;18.920;2023-02-08T17:10:03;33.80;;;18.90;;
75340;SDS011;64931;47.562;18.920;2023-02-08T17:12:29;17.40;;;9.50;;
75340;SDS011;64931;47.562;18.920;2023-02-08T17:14:55;34.70;;;19.70;;
75340;SDS011;64931;47.562;18.920;2023-02-08T17:17:20;30.30;;;15.20;;
75340;SDS011;64931;47.562;18.920;2023-02-08T17:19:46;15.70;;;8.40;;
75340;SDS011;64931;47.562;18.920;2023-02-08T17:22:11;29.70;;;15.90;;
75340;SDS011;64931;47.562;18.920;2023-02-08T17:24:37;21.60;;;10.50;;
75340;SDS011;64931;47.562;18.920;2023-02-08T17:27:02;33.10;;;15.80;;
75340;SDS011;64931;47.562;18.920;2023-02-08T17:29:28;16.00;;;7.80;;
75340;SDS011;64931;47.562;18.920;2023-02-08T17:31:53;62.30;;;37.50;;
75340;SDS011;64931;47.562;18.920;2023-02-08T17:34:19;23.20;;;12.90;;
75340;SDS011;64931;47.562;18.920;2023-02-08T17:36:44;13.70;;;7.40;;